Time;durP1;ratioP1;P1;durP2;ratioP2;P2;SDS_P1;SDS_P2;PMS_P1;PMS_P2;Temp;Humidity;BMP_temperature;BMP_pressure;BME280_temperature;BME280_humidity;BME280_pressure;Samples;Min_cycle;Max_cycle;Signal;HPM_P1;HPM_P2
2022/01/26 00:06:34;;;;;;;4.85;2.92;;;20.50;32.50;;;;;;5053683;28;20435;-67
2022/01/26 00:09:00;;;;;;;3.17;2.70;;;20.50;32.40;;;;;;5053966;28;20397;-64
2022/01/26 00:11:27;;;;;;;3.45;2.80;;;20.50;32.30;;;;;;5053445;28;21042;-66
2022/01/26 00:13:54;;;;;;;3.88;2.88;;;20.50;32.30;;;;;;5053859;28;20443;-66
2022/01/26 00:16:27;;;;;;;3.20;2.75;;;20.50;32.20;;;;;;5053678;28;20373;-69
2022/01/26 00:18:59;;;;;;;3.17;2.75;;;20.50;32.20;;;;;;5053826;28;20807;-72
2022/01/26 00:21:30;;;;;;;3.67;2.60;;;20.50;32.20;;;;;;5053380;28;20464;-72
2022/01/26 00:26:33;;;;;;;3.22;2.58;;;20.50;32.20;;;;;;5053122;28;20373;-67
2022/01/26 00:39:39;;;;;;;3.20;2.65;;;20.40;32.20;;;;;;5053493;28;20931;-64
2022/01/26 00:42:05;;;;;;;3.10;2.50;;;20.40;32.20;;;;;;5053167;28;20444;-69
2022/01/26 00:44:39;;;;;;;3.65;2.65;;;20.40;32.10;;;;;;5052697;28;20386;-67
2022/01/26 00:47:05;;;;;;;3.08;2.50;;;20.40;32.20;;;;;;5053104;28;20487;-66
2022/01/26 00:49:31;;;;;;;3.35;2.58;;;20.40;32.20;;;;;;5053016;28;20886;-64
2022/01/26 00:51:56;;;;;;;3.53;2.60;;;20.40;32.30;;;;;;5053250;28;20397;-64
2022/01/26 00:54:22;;;;;;;3.53;2.60;;;20.40;32.20;;;;;;5052365;28;20396;-71
2022/01/26 00:56:49;;;;;;;3.30;2.40;;;20.40;32.20;;;;;;5052882;28;20380;-75
2022/01/26 00:59:15;;;;;;;2.85;2.30;;;20.30;32.10;;;;;;5053070;28;20393;-74
2022/01/26 01:01:40;;;;;;;3.25;2.50;;;20.40;32.20;;;;;;5053122;28;20722;-63
2022/01/26 01:04:06;;;;;;;3.30;2.63;;;20.30;32.20;;;;;;5052736;28;20413;-65
2022/01/26 01:06:41;;;;;;;3.30;2.60;;;20.30;32.10;;;;;;5034392;28;20887;-63
2022/01/26 01:09:07;;;;;;;3.50;2.63;;;20.30;32.10;;;;;;5052480;28;20386;-64
2022/01/26 01:11:33;;;;;;;3.55;2.65;;;20.30;32.20;;;;;;5052484;28;20417;-63
2022/01/26 01:13:59;;;;;;;3.03;2.40;;;20.30;32.20;;;;;;5034623;28;20892;-63
2022/01/26 01:16:25;;;;;;;3.27;2.77;;;20.30;32.20;;;;;;5052182;28;20402;-63
2022/01/26 01:27:27;;;;;;;3.67;2.65;;;20.30;32.30;;;;;;5052185;28;20730;-70
2022/01/26 01:33:05;;;;;;;3.45;2.80;;;20.30;32.20;;;;;;5035674;28;20898;-64
2022/01/26 01:35:33;;;;;;;3.45;2.50;;;20.30;32.20;;;;;;5052118;28;20735;-63
2022/01/26 01:38:07;;;;;;;3.60;2.70;;;20.30;32.10;;;;;;5052211;28;20899;-64
2022/01/26 01:40:34;;;;;;;3.35;2.83;;;20.30;32.10;;;;;;5051543;28;20385;-64
2022/01/26 01:43:00;;;;;;;3.25;2.67;;;20.30;32.10;;;;;;5052093;28;20386;-65
2022/01/26 01:45:34;;;;;;;3.90;2.95;;;20.30;32.00;;;;;;5052070;28;20389;-75
2022/01/26 01:48:01;;;;;;;3.50;2.88;;;20.30;32.00;;;;;;5051944;28;20401;-63
2022/01/26 01:50:27;;;;;;;3.60;2.70;;;20.30;32.10;;;;;;5051621;28;20440;-63
2022/01/26 01:53:00;;;;;;;3.72;2.80;;;20.30;32.00;;;;;;5051770;28;20903;-66
2022/01/26 01:55:28;;;;;;;3.45;2.80;;;20.30;32.10;;;;;;5052131;28;20389;-63
2022/01/26 01:57:56;;;;;;;4.40;2.90;;;20.20;32.10;;;;;;5051782;28;20440;-74
2022/01/26 02:00:23;;;;;;;3.47;2.78;;;20.20;32.00;;;;;;5051951;28;20392;-71
2022/01/26 02:02:48;;;;;;;3.83;2.85;;;20.20;32.10;;;;;;5051391;28;20393;-64
2022/01/26 02:05:14;;;;;;;4.07;3.40;;;20.20;32.10;;;;;;5051122;28;20388;-64
2022/01/26 02:07:40;;;;;;;3.47;2.70;;;20.20;32.10;;;;;;5051634;28;20386;-66
2022/01/26 02:10:06;;;;;;;3.43;2.93;;;20.20;32.10;;;;;;5051317;28;20476;-63
2022/01/26 02:12:34;;;;;;;4.40;3.00;;;20.20;32.10;;;;;;5050915;28;20889;-64
2022/01/26 02:15:09;;;;;;;3.53;2.85;;;20.20;32.10;;;;;;5051663;28;20392;-64
2022/01/26 03:03:13;;;;;;;3.40;2.60;;;20.10;31.90;;;;;;5050672;28;20385;-72
2022/01/26 03:05:47;;;;;;;3.88;2.70;;;20.10;31.90;;;;;;5051097;28;20409;-69
2022/01/26 03:08:12;;;;;;;3.38;2.80;;;20.10;32.00;;;;;;5050949;28;20443;-64
2022/01/26 03:10:54;;;;;;;3.50;2.60;;;20.10;31.90;;;;;;5050621;28;20385;-64
2022/01/26 03:13:26;;;;;;;3.17;2.60;;;20.10;31.90;;;;;;5050965;28;20449;-70
2022/01/26 03:15:57;;;;;;;2.88;2.45;;;20.10;32.50;;;;;;5050982;28;20382;-64
2022/01/26 03:18:41;;;;;;;3.17;2.50;;;20.10;32.00;;;;;;5053958;28;20464;-64
2022/01/26 03:21:10;;;;;;;3.97;2.47;;;20.10;32.00;;;;;;5054892;28;20401;-64
2022/01/26 03:34:15;;;;;;;3.10;2.70;;;20.10;32.10;;;;;;5054679;28;20459;-63
2022/01/26 03:36:57;;;;;;;3.00;2.60;;;20.10;32.00;;;;;;5036133;28;20385;-63
2022/01/26 03:39:25;;;;;;;3.20;2.60;;;20.10;32.00;;;;;;5054371;28;20464;-63
2022/01/26 03:42:05;;;;;;;3.38;2.50;;;20.10;32.00;;;;;;5054290;28;20377;-64
2022/01/26 03:44:32;;;;;;;3.60;2.42;;;20.00;32.00;;;;;;5054119;28;20418;-65
2022/01/26 03:46:58;;;;;;;4.20;2.63;;;20.00;32.00;;;;;;5053921;28;20382;-63
2022/01/26 03:49:24;;;;;;;3.05;2.50;;;20.00;32.00;;;;;;5053973;28;20420;-65
2022/01/26 03:51:50;;;;;;;3.00;2.50;;;20.00;32.10;;;;;;5054104;28;20496;-64
2022/01/26 03:54:17;;;;;;;3.00;2.40;;;20.10;32.20;;;;;;5053927;28;20408;-66
2022/01/26 03:56:43;;;;;;;3.03;2.20;;;20.00;32.10;;;;;;5053577;28;20435;-63
2022/01/26 03:59:09;;;;;;;3.35;2.40;;;20.00;32.10;;;;;;5053908;28;20389;-64
2022/01/26 04:01:36;;;;;;;2.97;2.45;;;20.00;32.10;;;;;;5053952;28;20377;-74
2022/01/26 04:04:02;;;;;;;3.10;2.33;;;20.00;32.10;;;;;;5054103;28;20869;-67
2022/01/26 04:06:30;;;;;;;3.10;2.50;;;20.00;32.00;;;;;;5053912;28;20428;-67
2022/01/26 04:08:56;;;;;;;3.33;2.25;;;20.00;32.50;;;;;;5053244;28;20382;-62
2022/01/26 04:13:55;;;;;;;3.85;2.50;;;20.20;32.90;;;;;;5054212;28;20943;-62
2022/01/26 04:16:22;;;;;;;4.45;2.35;;;20.30;33.00;;;;;;5035679;28;20393;-63
2022/01/26 04:18:48;;;;;;;4.10;2.67;;;20.40;33.10;;;;;;5053247;28;20485;-63
2022/01/26 04:26:27;;;;;;;4.97;3.00;;;20.40;34.50;;;;;;4996191;28;20412;-68
2022/01/26 04:28:59;;;;;;;4.00;2.53;;;20.40;34.20;;;;;;5052187;28;20972;-75
2022/01/26 04:31:25;;;;;;;4.05;2.70;;;20.40;34.10;;;;;;5053338;28;20394;-64
2022/01/26 04:33:51;;;;;;;4.50;2.72;;;20.40;34.10;;;;;;5053423;28;20404;-66
2022/01/26 04:36:24;;;;;;;3.42;2.45;;;20.40;35.20;;;;;;5053266;28;20413;-64
2022/01/26 04:38:54;;;;;;;3.60;2.63;;;20.50;35.20;;;;;;5053031;28;20386;-64
2022/01/26 04:43:52;;;;;;;4.70;2.60;;;20.50;35.00;;;;;;5052274;28;20405;-65
2022/01/26 04:46:18;;;;;;;3.78;2.78;;;20.60;34.90;;;;;;5051865;28;20386;-64
2022/01/26 04:48:44;;;;;;;4.00;2.80;;;20.60;34.60;;;;;;5051844;28;20402;-65
2022/01/26 04:51:09;;;;;;;4.03;2.50;;;20.60;34.60;;;;;;5052684;28;20471;-63
2022/01/26 04:53:35;;;;;;;3.20;2.42;;;20.70;34.60;;;;;;5052629;28;20866;-63
2022/01/26 04:56:01;;;;;;;3.83;2.60;;;20.60;34.70;;;;;;5052983;28;20396;-64
2022/01/26 04:58:27;;;;;;;5.13;2.60;;;20.70;34.60;;;;;;5052776;28;20405;-64
2022/01/26 05:00:53;;;;;;;3.03;2.30;;;20.60;34.90;;;;;;5052424;28;20386;-64
2022/01/26 05:03:19;;;;;;;4.40;2.47;;;20.60;34.80;;;;;;5052466;28;20402;-64
2022/01/26 05:05:44;;;;;;;3.33;2.30;;;20.60;34.90;;;;;;5034818;28;20408;-64
2022/01/26 05:08:10;;;;;;;4.78;2.38;;;20.50;34.30;;;;;;5052659;28;20389;-64
2022/01/26 05:10:38;;;;;;;3.30;2.40;;;20.50;34.40;;;;;;5052285;28;20451;-65
2022/01/26 05:13:04;;;;;;;4.90;2.40;;;20.50;34.40;;;;;;5052323;28;20536;-64
2022/01/26 05:15:29;;;;;;;3.88;2.38;;;20.50;34.20;;;;;;5052226;28;20881;-72
2022/01/26 05:17:55;;;;;;;4.80;2.40;;;20.50;34.60;;;;;;5052472;28;20396;-67
2022/01/26 05:20:21;;;;;;;4.85;2.30;;;20.50;34.50;;;;;;5052260;28;20389;-65
2022/01/26 05:22:47;;;;;;;3.57;2.30;;;20.50;34.40;;;;;;5051910;28;20873;-68
2022/01/26 05:25:13;;;;;;;3.47;2.40;;;20.50;34.50;;;;;;5052266;28;20386;-67
2022/01/26 05:27:39;;;;;;;4.25;2.50;;;20.40;34.50;;;;;;5052427;28;20465;-67
2022/01/26 05:30:07;;;;;;;4.05;2.40;;;20.40;34.20;;;;;;5051971;28;20805;-63
2022/01/26 05:32:32;;;;;;;5.72;2.55;;;20.40;34.00;;;;;;5049728;28;20421;-65
2022/01/26 05:34:58;;;;;;;5.23;2.90;;;20.40;33.90;;;;;;5051247;28;20392;-75
2022/01/26 05:37:24;;;;;;;4.25;2.42;;;20.40;34.40;;;;;;5051932;28;21008;-70
2022/01/26 05:39:50;;;;;;;5.32;2.90;;;20.40;34.50;;;;;;5051892;28;20401;-72
2022/01/26 05:42:17;;;;;;;4.13;2.67;;;20.40;33.90;;;;;;5051592;28;20499;-68
2022/01/26 05:44:44;;;;;;;5.55;2.85;;;20.40;33.30;;;;;;5051559;28;20421;-69
2022/01/26 05:47:14;;;;;;;6.25;3.00;;;20.40;33.20;;;;;;5051885;28;20498;-67
2022/01/26 05:49:40;;;;;;;6.22;2.95;;;20.40;33.70;;;;;;5051191;28;20405;-65
2022/01/26 05:52:06;;;;;;;5.20;3.10;;;20.50;34.10;;;;;;5051385;28;20929;-73
2022/01/26 05:54:32;;;;;;;4.97;2.90;;;20.60;34.30;;;;;;5052055;28;20425;-75
2022/01/26 05:56:57;;;;;;;5.00;3.10;;;20.60;34.00;;;;;;5051118;28;20397;-71
2022/01/26 05:59:23;;;;;;;4.97;3.33;;;20.60;34.30;;;;;;5051746;28;20439;-66
2022/01/26 06:01:50;;;;;;;5.10;2.70;;;20.60;35.40;;;;;;5051669;28;20474;-72
2022/01/26 06:04:16;;;;;;;5.13;3.03;;;20.70;34.70;;;;;;5051208;28;20390;-76
2022/01/26 06:06:42;;;;;;;5.35;3.13;;;20.60;34.40;;;;;;5030041;28;20939;-72
2022/01/26 06:09:08;;;;;;;5.70;3.00;;;20.70;34.60;;;;;;5034837;28;20484;-71
2022/01/26 06:11:33;;;;;;;4.70;3.25;;;20.70;34.40;;;;;;5050283;28;20424;-68
2022/01/26 06:13:59;;;;;;;4.45;2.78;;;20.70;34.30;;;;;;5050292;28;20752;-69
2022/01/26 06:16:24;;;;;;;3.73;2.80;;;20.70;34.20;;;;;;5051222;28;20788;-75
2022/01/26 06:18:50;;;;;;;4.25;3.03;;;20.70;34.40;;;;;;5050735;28;20402;-67
2022/01/26 06:21:16;;;;;;;4.60;3.20;;;20.70;34.50;;;;;;5050804;28;20397;-63
2022/01/26 06:23:42;;;;;;;4.20;2.85;;;20.70;34.50;;;;;;5049935;28;20757;-72
2022/01/26 06:26:08;;;;;;;4.60;3.15;;;20.70;34.60;;;;;;5051250;28;20397;-72
2022/01/26 06:28:34;;;;;;;4.97;3.33;;;20.80;34.20;;;;;;5051454;28;20393;-67
2022/01/26 06:31:03;;;;;;;6.07;3.57;;;20.70;34.00;;;;;;5050673;28;20480;-73
2022/01/26 06:33:34;;;;;;;5.07;3.13;;;20.70;34.40;;;;;;5031083;28;20896;-64
2022/01/26 06:36:00;;;;;;;6.35;3.40;;;20.80;34.40;;;;;;5047356;28;20921;-62
2022/01/26 06:38:28;;;;;;;5.32;3.40;;;20.70;34.20;;;;;;5049158;28;20402;-66
2022/01/26 06:40:57;;;;;;;5.95;3.70;;;20.70;34.00;;;;;;5049030;28;20409;-68
2022/01/26 06:43:26;;;;;;;5.67;3.50;;;20.70;33.90;;;;;;5049376;28;20739;-75
2022/01/26 06:45:59;;;;;;;5.25;3.42;;;20.70;34.00;;;;;;5049440;28;20389;-72
2022/01/26 06:48:43;;;;;;;5.55;3.40;;;20.70;33.80;;;;;;5049415;28;20476;-63
2022/01/26 06:51:12;;;;;;;5.65;3.33;;;20.70;33.70;;;;;;5046458;28;20401;-63
2022/01/26 06:53:37;;;;;;;4.55;3.30;;;20.70;33.90;;;;;;5034018;28;20490;-75
2022/01/26 06:56:03;;;;;;;6.65;3.60;;;20.70;33.50;;;;;;5050616;28;20583;-63
2022/01/26 06:58:29;;;;;;;4.85;3.00;;;20.70;34.30;;;;;;5052981;28;20409;-65
2022/01/26 07:00:55;;;;;;;5.70;3.30;;;20.70;33.60;;;;;;5035914;28;20585;-64
2022/01/26 07:03:21;;;;;;;5.13;3.55;;;20.70;33.50;;;;;;5032461;28;20457;-62
2022/01/26 07:05:47;;;;;;;5.75;3.40;;;20.70;33.40;;;;;;5035050;28;20424;-62
2022/01/26 07:08:12;;;;;;;5.90;3.27;;;20.70;33.20;;;;;;5036044;28;20420;-62
2022/01/26 07:10:38;;;;;;;5.00;3.10;;;20.60;33.20;;;;;;5054375;28;20393;-62
2022/01/26 07:13:04;;;;;;;4.10;3.20;;;20.70;33.30;;;;;;5035917;28;20416;-62
2022/01/26 07:23:46;;;;;;;3.83;2.90;;;20.60;33.00;;;;;;5054117;28;20463;-62
2022/01/26 07:26:11;;;;;;;3.80;2.87;;;20.60;32.90;;;;;;5053934;28;20894;-62
2022/01/26 07:28:39;;;;;;;3.55;2.50;;;20.60;32.80;;;;;;5054079;28;20393;-62
2022/01/26 07:31:06;;;;;;;3.47;2.70;;;20.60;32.70;;;;;;5053503;28;20738;-62
2022/01/26 07:33:32;;;;;;;3.55;2.70;;;20.60;32.60;;;;;;5053637;28;20413;-62
2022/01/26 07:35:58;;;;;;;3.60;2.60;;;20.50;32.50;;;;;;5053774;28;20386;-62
2022/01/26 07:38:25;;;;;;;4.00;2.90;;;20.50;32.50;;;;;;5036326;28;20389;-62
2022/01/26 07:40:51;;;;;;;4.00;2.70;;;20.50;32.50;;;;;;5051556;28;20390;-64
2022/01/26 07:43:17;;;;;;;3.53;2.60;;;20.50;32.50;;;;;;5053637;28;20472;-64
2022/01/26 07:45:43;;;;;;;3.58;2.75;;;20.50;32.40;;;;;;5053592;28;20480;-64
2022/01/26 07:48:09;;;;;;;3.40;2.47;;;20.50;32.40;;;;;;5053408;28;20418;-64
2022/01/26 07:50:35;;;;;;;3.63;2.75;;;20.50;32.30;;;;;;5053227;28;20398;-64
2022/01/26 07:53:02;;;;;;;3.25;2.63;;;20.50;32.40;;;;;;5052130;28;20479;-66
2022/01/26 07:55:30;;;;;;;4.35;2.60;;;20.50;32.30;;;;;;5050303;28;20397;-65
2022/01/26 07:57:56;;;;;;;4.25;2.85;;;20.40;32.30;;;;;;5053464;28;20397;-64
2022/01/26 08:00:23;;;;;;;3.03;2.42;;;20.40;32.30;;;;;;5053435;28;20447;-64
2022/01/26 08:02:49;;;;;;;3.42;2.50;;;20.40;32.30;;;;;;5050097;28;20837;-63
2022/01/26 08:05:16;;;;;;;3.47;2.60;;;20.40;32.20;;;;;;5052132;28;20409;-62
2022/01/26 08:07:42;;;;;;;3.22;2.60;;;20.40;32.20;;;;;;5052954;28;20455;-62
2022/01/26 08:10:10;;;;;;;3.33;2.70;;;20.50;32.20;;;;;;5052712;28;20394;-62
2022/01/26 08:12:39;;;;;;;3.25;2.38;;;20.40;32.10;;;;;;5053285;28;20449;-70
2022/01/26 08:15:07;;;;;;;3.30;2.40;;;20.40;32.10;;;;;;5052593;28;20386;-63
2022/01/26 08:17:34;;;;;;;3.35;2.58;;;20.50;32.10;;;;;;5053131;28;20959;-62
2022/01/26 08:20:00;;;;;;;3.40;2.80;;;20.50;32.10;;;;;;5051104;28;20397;-63
2022/01/26 08:22:27;;;;;;;3.20;2.63;;;20.40;32.00;;;;;;5052668;28;20420;-63
2022/01/26 08:24:54;;;;;;;3.33;2.53;;;20.40;32.00;;;;;;5049628;28;20400;-65
2022/01/26 08:27:22;;;;;;;3.58;2.72;;;20.50;32.00;;;;;;5052501;28;20400;-64
2022/01/26 08:29:54;;;;;;;3.08;2.70;;;20.40;31.90;;;;;;5035093;28;20892;-64
2022/01/26 08:32:20;;;;;;;3.25;2.90;;;20.40;31.90;;;;;;5052588;28;20469;-66
2022/01/26 08:34:46;;;;;;;2.85;2.40;;;20.40;31.90;;;;;;5052493;28;20405;-64
2022/01/26 08:37:11;;;;;;;3.07;2.60;;;20.40;32.00;;;;;;5034006;28;20469;-66
2022/01/26 08:39:38;;;;;;;2.97;2.40;;;20.40;31.90;;;;;;5050283;28;20401;-77
2022/01/26 08:42:06;;;;;;;3.08;2.53;;;20.40;32.40;;;;;;5049785;28;20551;-77
2022/01/26 08:44:32;;;;;;;3.05;2.60;;;20.40;31.80;;;;;;5051199;28;20484;-61
2022/01/26 08:46:58;;;;;;;3.60;2.90;;;20.40;32.00;;;;;;5049017;28;20402;-64
2022/01/26 08:49:27;;;;;;;4.67;3.00;;;20.40;32.60;;;;;;5050856;28;20412;-64
2022/01/26 08:51:53;;;;;;;3.88;2.80;;;20.50;33.20;;;;;;5033134;28;20424;-64
2022/01/26 08:54:22;;;;;;;3.67;2.58;;;20.50;33.00;;;;;;5051045;28;20377;-64
2022/01/26 08:56:49;;;;;;;3.22;2.58;;;20.60;33.00;;;;;;5050783;28;20385;-64
2022/01/26 08:59:16;;;;;;;2.97;2.53;;;20.60;33.20;;;;;;5051615;28;20815;-68
2022/01/26 09:01:41;;;;;;;4.80;2.72;;;20.60;33.20;;;;;;5051264;28;20872;-75
2022/01/26 09:04:07;;;;;;;3.20;2.60;;;20.70;33.20;;;;;;5052631;28;20382;-64
2022/01/26 09:06:38;;;;;;;3.15;2.30;;;20.60;33.10;;;;;;5051375;28;20408;-65
2022/01/26 09:09:07;;;;;;;3.40;2.42;;;20.70;33.10;;;;;;5032298;28;20393;-64
2022/01/26 09:11:35;;;;;;;2.92;2.20;;;20.60;33.00;;;;;;5048915;28;20385;-66
2022/01/26 09:14:07;;;;;;;3.17;2.38;;;20.70;33.00;;;;;;5034130;28;20427;-70
2022/01/26 09:16:33;;;;;;;3.08;2.50;;;20.70;33.10;;;;;;5051763;28;20382;-67
2022/01/26 09:19:06;;;;;;;3.15;2.33;;;20.60;32.70;;;;;;5051542;28;20447;-67
2022/01/26 09:21:32;;;;;;;2.80;2.20;;;20.60;33.10;;;;;;5050926;28;20877;-72
2022/01/26 09:23:58;;;;;;;3.30;2.38;;;20.60;33.00;;;;;;5049244;28;20830;-64
2022/01/26 09:26:23;;;;;;;2.60;2.13;;;20.60;33.00;;;;;;5051099;28;21325;-63
2022/01/26 09:28:49;;;;;;;2.63;2.10;;;20.60;32.90;;;;;;5048601;28;20493;-63
2022/01/26 09:31:14;;;;;;;3.90;2.40;;;20.60;32.90;;;;;;5051275;28;20382;-68
2022/01/26 09:33:40;;;;;;;3.10;2.33;;;20.50;32.80;;;;;;5051518;28;20881;-65
2022/01/26 09:36:07;;;;;;;3.00;2.33;;;20.50;32.80;;;;;;5051293;28;20420;-66
2022/01/26 09:38:33;;;;;;;3.53;2.25;;;20.50;32.70;;;;;;5031889;28;20482;-66
2022/01/26 09:40:58;;;;;;;2.93;2.40;;;20.50;32.80;;;;;;5031449;28;20482;-68
2022/01/26 09:43:27;;;;;;;3.30;2.28;;;20.50;32.70;;;;;;5043303;28;20393;-63
2022/01/26 09:45:53;;;;;;;3.38;2.00;;;20.50;32.70;;;;;;5051449;28;20451;-62
2022/01/26 09:48:19;;;;;;;3.05;2.22;;;20.50;32.60;;;;;;5051531;28;20394;-63
2022/01/26 09:50:46;;;;;;;3.33;2.28;;;20.50;32.40;;;;;;5051249;28;20405;-63
2022/01/26 09:53:21;;;;;;;3.83;2.40;;;20.50;32.70;;;;;;5032972;28;20421;-63
2022/01/26 09:55:49;;;;;;;2.83;2.28;;;20.50;32.60;;;;;;5050904;28;20706;-63
2022/01/26 09:58:15;;;;;;;3.13;2.10;;;20.40;32.60;;;;;;5051480;28;20745;-63
2022/01/26 10:00:41;;;;;;;3.03;2.15;;;20.40;33.10;;;;;;5051425;28;20727;-63
2022/01/26 10:03:06;;;;;;;2.78;2.00;;;20.40;32.50;;;;;;5050778;28;20392;-63
2022/01/26 10:05:42;;;;;;;2.60;2.10;;;20.40;32.40;;;;;;5051217;28;20411;-62
2022/01/26 10:19:06;;;;;;;3.05;2.20;;;20.40;32.10;;;;;;5050820;28;20446;-74
2022/01/26 10:21:32;;;;;;;3.30;2.25;;;20.40;32.10;;;;;;5051437;28;20390;-64
2022/01/26 10:24:07;;;;;;;2.60;2.38;;;20.40;32.10;;;;;;5051423;28;20472;-76
2022/01/26 10:26:33;;;;;;;2.78;2.30;;;20.40;32.00;;;;;;5050686;28;20405;-76
2022/01/26 10:29:02;;;;;;;3.00;2.30;;;20.40;32.00;;;;;;5050961;28;20491;-65
2022/01/26 10:31:29;;;;;;;2.50;2.10;;;20.40;32.00;;;;;;5051250;28;20397;-70
2022/01/26 10:34:04;;;;;;;2.80;2.10;;;20.40;31.90;;;;;;5049734;28;20483;-66
2022/01/26 10:36:36;;;;;;;3.13;2.28;;;20.40;32.00;;;;;;5051190;28;20401;-76
2022/01/26 10:39:05;;;;;;;3.28;2.28;;;20.40;32.00;;;;;;5050798;28;20404;-65
2022/01/26 10:41:30;;;;;;;2.95;2.47;;;20.40;32.00;;;;;;5051231;28;20515;-74
2022/01/26 10:43:59;;;;;;;2.60;2.10;;;20.40;32.00;;;;;;5051186;28;20841;-77
2022/01/26 10:46:32;;;;;;;2.58;2.28;;;20.40;31.90;;;;;;5051068;28;20417;-68
2022/01/26 10:54:21;;;;;;;2.30;1.85;;;20.40;31.90;;;;;;5051108;28;20404;-70
2022/01/26 10:56:48;;;;;;;3.40;2.28;;;20.40;31.90;;;;;;5050814;28;20407;-64
2022/01/26 10:59:14;;;;;;;3.67;2.17;;;20.40;31.90;;;;;;5049367;28;20411;-70
2022/01/26 11:01:40;;;;;;;4.22;2.15;;;20.40;32.70;;;;;;5049746;28;20381;-64
2022/01/26 11:04:07;;;;;;;2.83;2.20;;;20.40;32.60;;;;;;5031964;28;20500;-65
2022/01/26 11:06:33;;;;;;;3.47;2.58;;;20.50;32.50;;;;;;5049833;28;20386;-69
2022/01/26 11:09:08;;;;;;;4.22;2.42;;;20.50;32.60;;;;;;5032433;28;20401;-64
2022/01/26 11:11:34;;;;;;;3.90;2.40;;;20.50;32.40;;;;;;5050987;28;20460;-67
2022/01/26 11:13:59;;;;;;;3.25;2.20;;;20.50;32.50;;;;;;5049441;28;20793;-65
2022/01/26 11:16:25;;;;;;;4.60;2.60;;;20.40;32.20;;;;;;5032320;28;20393;-75
2022/01/26 11:18:54;;;;;;;3.83;2.45;;;20.50;32.60;;;;;;5032414;28;20459;-67
2022/01/26 11:21:39;;;;;;;3.70;2.30;;;20.50;32.70;;;;;;5049374;28;20385;-65
2022/01/26 11:24:24;;;;;;;3.60;2.38;;;20.60;32.70;;;;;;5047264;28;20481;-72
2022/01/26 11:27:05;;;;;;;4.70;2.50;;;20.50;32.50;;;;;;5027543;28;20895;-75
2022/01/26 11:29:36;;;;;;;3.67;2.45;;;20.60;32.40;;;;;;5030930;28;20864;-76
2022/01/26 11:32:12;;;;;;;3.45;2.28;;;20.60;32.60;;;;;;5013246;28;20487;-76
2022/01/26 11:34:39;;;;;;;4.72;2.50;;;20.60;32.20;;;;;;5030496;28;20486;-65
2022/01/26 11:37:10;;;;;;;4.15;2.40;;;20.50;32.20;;;;;;5030301;28;20452;-70
2022/01/26 11:45:14;;;;;;;4.53;2.50;;;20.60;31.70;;;;;;5034001;28;20453;-75
2022/01/26 11:47:43;;;;;;;2.92;2.30;;;20.60;32.20;;;;;;5034077;28;20851;-77
2022/01/26 11:50:10;;;;;;;3.20;2.33;;;20.60;31.50;;;;;;5033956;28;20494;-74
2022/01/26 11:52:38;;;;;;;3.22;2.22;;;20.60;31.50;;;;;;5034129;28;20422;-77
2022/01/26 11:55:37;;;;;;;3.17;2.30;;;20.60;31.50;;;;;;5015905;28;20387;-64
2022/01/26 11:58:15;;;;;;;3.35;2.50;;;20.60;31.40;;;;;;5031316;28;20403;-65
2022/01/26 12:00:54;;;;;;;3.50;2.30;;;20.60;31.40;;;;;;5033984;28;20379;-64
2022/01/26 12:03:25;;;;;;;2.85;2.20;;;20.60;31.40;;;;;;5033759;28;20394;-65
2022/01/26 12:05:56;;;;;;;3.15;2.20;;;20.60;31.40;;;;;;5033701;28;20449;-77
2022/01/26 12:08:30;;;;;;;4.85;2.40;;;20.60;31.40;;;;;;5033907;28;20391;-64
2022/01/26 12:10:56;;;;;;;3.22;2.60;;;20.50;31.30;;;;;;5048926;28;20395;-74
2022/01/26 12:13:25;;;;;;;2.80;2.17;;;20.60;31.30;;;;;;5033457;28;20772;-65
2022/01/26 12:15:55;;;;;;;3.28;2.30;;;20.50;31.30;;;;;;5033721;28;20395;-65
2022/01/26 12:38:10;;;;;;;3.03;2.50;;;20.50;31.20;;;;;;5033442;28;20395;-73
2022/01/26 12:43:36;;;;;;;2.88;2.15;;;20.50;31.10;;;;;;5033363;28;20433;-68
2022/01/26 12:46:05;;;;;;;2.65;2.15;;;20.50;31.10;;;;;;5033172;28;20410;-64
2022/01/26 12:48:34;;;;;;;3.85;2.20;;;20.50;31.20;;;;;;5033053;28;20390;-65
2022/01/26 12:51:02;;;;;;;2.83;2.33;;;20.50;31.10;;;;;;5032175;28;20391;-64
2022/01/26 12:53:29;;;;;;;2.70;2.33;;;20.50;31.10;;;;;;5033044;28;20477;-64
2022/01/26 12:55:57;;;;;;;2.80;2.20;;;20.50;31.10;;;;;;5033014;28;20394;-64
2022/01/26 12:58:29;;;;;;;2.42;2.10;;;20.60;31.10;;;;;;5033002;28;20379;-65
2022/01/26 13:01:04;;;;;;;3.30;2.30;;;20.60;31.00;;;;;;5032922;28;20387;-64
2022/01/26 13:03:40;;;;;;;3.88;2.35;;;20.60;31.00;;;;;;5032983;28;20387;-65
2022/01/26 13:06:07;;;;;;;3.07;2.33;;;20.60;31.00;;;;;;5048099;28;20743;-65
2022/01/26 13:08:48;;;;;;;4.00;2.35;;;20.60;30.90;;;;;;5032815;28;20375;-71
2022/01/26 13:11:31;;;;;;;2.60;2.17;;;20.70;31.00;;;;;;5032233;28;20394;-64
2022/01/26 13:14:14;;;;;;;4.72;2.65;;;20.70;30.80;;;;;;5034457;28;20418;-72
2022/01/26 13:16:45;;;;;;;3.33;2.70;;;20.60;31.70;;;;;;5049952;28;20378;-64
2022/01/26 13:24:23;;;;;;;3.88;2.60;;;20.70;32.00;;;;;;5051859;28;20386;-69
2022/01/26 13:27:00;;;;;;;5.03;2.60;;;20.60;32.10;;;;;;5052251;28;20450;-66
2022/01/26 13:37:39;;;;;;;3.55;2.70;;;20.70;32.00;;;;;;5051634;28;20440;-66
2022/01/26 13:40:28;;;;;;;3.60;2.63;;;20.80;32.20;;;;;;5052343;28;20428;-76
2022/01/26 13:48:40;;;;;;;3.63;2.55;;;20.80;32.20;;;;;;5052013;28;20384;-75
2022/01/26 13:51:20;;;;;;;4.93;2.70;;;20.90;32.10;;;;;;5051335;28;20754;-65
2022/01/26 13:56:34;;;;;;;3.10;2.50;;;20.80;32.10;;;;;;5051770;28;20896;-70
2022/01/26 13:59:13;;;;;;;4.50;2.88;;;20.90;32.00;;;;;;5051542;28;20409;-65
2022/01/26 14:01:43;;;;;;;3.50;2.45;;;20.80;31.90;;;;;;5051841;28;20395;-65
2022/01/26 14:04:09;;;;;;;4.03;2.70;;;20.90;31.80;;;;;;5042741;28;20917;-65
2022/01/26 14:06:35;;;;;;;5.72;2.75;;;20.90;31.60;;;;;;5045998;28;20386;-71
2022/01/26 14:09:01;;;;;;;4.37;2.57;;;20.90;31.70;;;;;;5033277;28;20512;-65
2022/01/26 14:11:26;;;;;;;4.28;2.75;;;20.90;31.60;;;;;;5050571;28;20463;-65
2022/01/26 14:13:55;;;;;;;4.97;2.70;;;20.90;31.60;;;;;;5032011;28;20504;-74
2022/01/26 14:16:23;;;;;;;4.10;2.75;;;20.90;31.60;;;;;;5032151;28;20389;-78
2022/01/26 14:21:41;;;;;;;4.05;2.55;;;20.90;31.60;;;;;;5048850;28;20392;-71
2022/01/26 14:26:47;;;;;;;5.03;2.78;;;20.90;31.60;;;;;;5048347;28;20440;-65
2022/01/26 14:29:24;;;;;;;4.47;2.90;;;20.90;31.60;;;;;;5049538;28;20392;-64
2022/01/26 14:32:08;;;;;;;5.38;2.80;;;21.00;31.60;;;;;;5049875;28;20511;-64
2022/01/26 14:39:32;;;;;;;4.50;2.80;;;21.00;31.50;;;;;;5049791;28;20399;-71
2022/01/26 15:08:44;;;;;;;4.30;2.70;;;21.00;31.50;;;;;;5044319;28;20868;-65
2022/01/26 15:22:24;;;;;;;5.05;3.00;;;20.50;32.40;;;;;;5051287;28;20523;-65
2022/01/26 15:34:56;;;;;;;5.55;3.22;;;20.60;33.20;;;;;;5052726;28;20408;-64
2022/01/26 15:51:02;;;;;;;4.10;2.47;;;20.60;32.60;;;;;;5051767;28;20828;-63
2022/01/26 16:37:42;;;;;;;5.82;2.42;;;20.80;33.10;;;;;;5050431;28;20790;-64
2022/01/26 17:12:44;;;;;;;7.15;3.22;;;20.70;32.80;;;;;;5050631;28;20392;-67
2022/01/26 18:17:42;;;;;;;21.15;9.13;;;21.90;43.70;;;;;;5052145;28;20401;-67
2022/01/26 18:49:37;;;;;;;13.18;6.43;;;21.50;39.30;;;;;;5052263;28;20467;-66
2022/01/26 18:52:05;;;;;;;11.48;5.80;;;21.50;39.10;;;;;;5052844;28;20401;-65
2022/01/26 18:54:34;;;;;;;10.13;5.75;;;21.40;38.80;;;;;;5053245;28;20405;-68
2022/01/26 18:57:03;;;;;;;9.98;5.85;;;21.40;38.20;;;;;;5053011;28;20427;-66
2022/01/26 18:59:29;;;;;;;8.95;5.65;;;21.40;38.00;;;;;;5052965;28;20396;-67
2022/01/26 19:01:56;;;;;;;10.15;5.65;;;21.40;37.80;;;;;;5054510;28;20380;-65
2022/01/26 19:04:29;;;;;;;9.00;5.50;;;21.40;37.60;;;;;;5032955;28;20405;-66
2022/01/26 19:06:57;;;;;;;8.48;5.38;;;21.40;37.40;;;;;;5053193;28;20869;-65
2022/01/26 19:09:27;;;;;;;7.88;5.40;;;21.40;37.30;;;;;;5050211;28;20401;-65
2022/01/26 19:11:54;;;;;;;9.02;5.40;;;21.40;37.20;;;;;;5054277;28;20781;-70
2022/01/26 19:14:25;;;;;;;7.97;5.43;;;21.30;37.00;;;;;;5052163;28;20941;-65
2022/01/26 19:16:59;;;;;;;7.97;5.18;;;21.30;36.80;;;;;;5054091;28;20381;-65
2022/01/26 19:19:35;;;;;;;7.75;5.45;;;21.30;36.60;;;;;;5050832;28;20424;-67
2022/01/26 19:22:14;;;;;;;8.02;5.57;;;21.30;36.60;;;;;;5052443;28;20881;-65
2022/01/26 19:24:51;;;;;;;6.60;5.20;;;21.30;36.50;;;;;;5052630;28;20422;-65
2022/01/26 19:27:37;;;;;;;7.82;5.53;;;21.30;36.30;;;;;;5052551;28;20391;-66
2022/01/26 19:46:26;;;;;;;12.75;6.28;;;21.30;38.70;;;;;;5051483;28;20458;-66
2022/01/26 19:51:42;;;;;;;12.53;7.30;;;21.30;39.70;;;;;;5052456;28;20400;-67
2022/01/26 19:54:08;;;;;;;11.57;7.00;;;21.30;39.80;;;;;;5051249;28;20907;-66
2022/01/26 19:56:34;;;;;;;10.00;6.20;;;21.30;40.40;;;;;;5053152;28;20385;-77
2022/01/26 19:59:00;;;;;;;9.65;6.07;;;21.40;38.80;;;;;;5053534;28;20397;-66
2022/01/26 20:01:26;;;;;;;12.85;6.45;;;21.30;37.60;;;;;;5029747;28;20923;-67
2022/01/26 20:03:52;;;;;;;12.48;6.85;;;21.30;38.40;;;;;;5050310;28;20896;-67